Portada
METAR-TAF:

METAR-TAF

Aeropuertos :

Aeropuerto de Saint-Étienne - Bouthéon

Saint-Etienne, Francia

latitud: 45-32N, longitud: 004-18E, altitud: 404 m

Observación

El informe se hizo hace 43 minutos, a las 12:00 UTC
Viento 4 kt del oeste-noroeste, variando entre oeste-suroeste y norte-noroeste
Temperatura 17°C
Humedad 55%
Presión 1011 hPa
Visibilidad 10 km o más
Escasas nubes a una altura de 3600 ft
Nubes dispersas a una altura de 6600 ft
Cielo nuboso a una altura de 11000 ft

METAR: LFMH 261200Z AUTO 30004KT 240V340 9999 FEW036 SCT066 BKN110 17/08 Q1011

Hora: 14:43 (12:43 UTC)


TAF: falta

Observaciones y pronósticos meteorológicos de más de 4000 aeropuertos (mensajes METAR y TAF).

Los puntos amarillos y rojos representan las estaciones disponibles.

Ponga el ratón en el punto deseado para ver el nombre de la estación.

Haga clic para ver las observaciones y los pronósticos meteorológicos.

Para cambiar el mapa : haga clic en los botones verdes con una cruz de color negro para hacer un zoom, en el botón verde con un guión para alejar o en las flechas verdes para mapas adyacentes.


METAR-TAF: